createdAt,value
2018-03-07T00:00:31.934Z,1.35
2018-03-07T00:02:59.408Z,1.33
2018-03-07T00:05:26.923Z,1.36
2018-03-07T00:07:54.681Z,1.35
2018-03-07T00:10:22.147Z,1.35
2018-03-07T00:12:49.642Z,1.34
2018-03-07T00:15:17.499Z,1.33
2018-03-07T00:17:44.967Z,1.31
2018-03-07T00:20:12.683Z,1.27
2018-03-07T00:22:40.145Z,1.26
2018-03-07T00:25:07.623Z,1.22
2018-03-07T00:27:35.103Z,1.16
2018-03-07T00:30:02.619Z,1.12
2018-03-07T00:32:30.277Z,1.07
2018-03-07T00:34:57.767Z,1.03
2018-03-07T00:37:25.373Z,0.94
2018-03-07T00:39:53.157Z,0.91
2018-03-07T00:42:20.646Z,0.81
2018-03-07T00:44:48.127Z,0.75
2018-03-07T00:47:15.623Z,0.69
2018-03-07T00:49:43.101Z,0.66
2018-03-07T00:52:11.118Z,0.58
2018-03-07T00:54:38.560Z,0.53
2018-03-07T00:57:06.062Z,0.54
2018-03-07T00:59:33.545Z,0.47
2018-03-07T01:02:01.020Z,0.36
2018-03-07T01:04:29.727Z,0.31
2018-03-07T01:06:57.196Z,0.31
2018-03-07T01:09:24.676Z,0.33
2018-03-07T01:11:52.166Z,0.55
2018-03-07T01:14:19.700Z,0.60
2018-03-07T01:16:47.194Z,0.59
2018-03-07T01:19:14.666Z,0.62
2018-03-07T01:21:42.156Z,0.61
2018-03-07T01:24:10.003Z,0.67
2018-03-07T01:26:37.482Z,0.71
2018-03-07T01:29:06.520Z,0.72
2018-03-07T01:31:34.011Z,0.67
2018-03-07T01:34:01.484Z,0.64
2018-03-07T01:36:29.127Z,0.67
2018-03-07T01:38:56.659Z,0.68
2018-03-07T01:41:24.132Z,0.67
2018-03-07T01:43:52.266Z,0.64
2018-03-07T01:46:19.732Z,0.67
2018-03-07T01:48:47.667Z,0.70
2018-03-07T01:51:15.360Z,0.64
2018-03-07T01:53:44.027Z,0.59
2018-03-07T01:56:11.540Z,0.70
2018-03-07T01:58:39.003Z,0.71
2018-03-07T02:01:06.547Z,0.74
2018-03-07T02:03:34.039Z,0.81
2018-03-07T02:06:01.523Z,0.86
2018-03-07T02:08:31.752Z,0.91
2018-03-07T02:10:59.319Z,1.02
2018-03-07T02:13:26.834Z,1.12
2018-03-07T02:15:54.323Z,1.17
2018-03-07T02:18:21.804Z,1.25
2018-03-07T02:20:49.279Z,1.29
2018-03-07T02:23:16.778Z,1.41
2018-03-07T02:25:44.249Z,1.38
2018-03-07T02:28:11.719Z,1.38
2018-03-07T02:30:39.387Z,1.33
2018-03-07T02:33:06.971Z,1.26
2018-03-07T02:35:34.462Z,1.24
2018-03-07T02:38:02.020Z,1.24
2018-03-07T02:40:29.477Z,1.28
2018-03-07T02:42:57.042Z,1.40
2018-03-07T02:45:24.504Z,1.48
2018-03-07T02:47:51.999Z,1.49
2018-03-07T02:50:19.455Z,1.53
2018-03-07T02:52:46.918Z,1.49
2018-03-07T02:55:14.388Z,1.59
2018-03-07T02:57:41.838Z,1.57
2018-03-07T03:00:09.411Z,1.56
2018-03-07T03:02:36.876Z,1.57
2018-03-07T03:05:04.337Z,1.61
2018-03-07T03:07:31.832Z,1.64
2018-03-07T03:09:59.309Z,1.65
2018-03-07T03:12:26.937Z,1.60
2018-03-07T03:14:55.031Z,1.60
2018-03-07T03:17:22.495Z,1.57
2018-03-07T03:19:49.956Z,1.58
2018-03-07T03:22:17.421Z,1.58
2018-03-07T03:24:44.966Z,1.60
2018-03-07T03:27:12.502Z,1.59
2018-03-07T03:29:39.972Z,1.57
2018-03-07T03:32:08.309Z,1.56
2018-03-07T03:34:35.813Z,1.54
2018-03-07T03:37:03.296Z,1.54
2018-03-07T03:39:30.759Z,1.57
2018-03-07T03:41:58.227Z,1.55
2018-03-07T03:44:25.696Z,1.59
2018-03-07T03:46:53.224Z,1.58
2018-03-07T03:49:20.707Z,1.57
2018-03-07T03:51:48.163Z,1.59
2018-03-07T03:54:15.635Z,1.59
2018-03-07T03:56:43.394Z,1.52
2018-03-07T03:59:10.850Z,1.47
2018-03-07T04:01:38.331Z,1.37
2018-03-07T04:04:05.810Z,1.30
2018-03-07T04:06:33.397Z,1.26
2018-03-07T04:09:00.904Z,1.21
2018-03-07T04:11:28.395Z,1.12
2018-03-07T04:13:55.880Z,1.12
2018-03-07T04:16:23.442Z,1.13
2018-03-07T04:18:50.918Z,1.11
2018-03-07T04:21:18.448Z,1.10
2018-03-07T04:23:45.907Z,1.05
2018-03-07T04:26:13.487Z,0.96
2018-03-07T04:28:40.992Z,0.92
2018-03-07T04:31:08.456Z,0.80
2018-03-07T04:33:36.291Z,0.80
2018-03-07T04:36:03.774Z,0.77
2018-03-07T04:38:31.263Z,0.63
2018-03-07T04:40:58.759Z,0.53
2018-03-07T04:43:26.249Z,0.42
2018-03-07T04:45:53.769Z,0.35
2018-03-07T04:48:21.256Z,0.31
2018-03-07T04:50:49.176Z,0.27
2018-03-07T04:53:16.825Z,0.23
2018-03-07T04:55:44.294Z,0.20
2018-03-07T04:58:11.755Z,0.21
2018-03-07T05:00:39.240Z,0.31
2018-03-07T05:03:06.709Z,0.28
2018-03-07T05:05:34.158Z,0.37
2018-03-07T05:08:01.632Z,0.38
2018-03-07T05:10:29.297Z,0.38
2018-03-07T05:12:56.805Z,0.47
2018-03-07T05:15:24.286Z,0.51
2018-03-07T05:17:51.766Z,0.52
2018-03-07T05:20:19.234Z,0.63
2018-03-07T05:22:46.715Z,0.63
2018-03-07T05:25:14.214Z,0.63
2018-03-07T05:27:41.671Z,0.65
2018-03-07T05:30:09.131Z,0.70
2018-03-07T05:32:36.606Z,0.77
2018-03-07T05:35:04.088Z,0.98
2018-03-07T05:37:31.563Z,1.10
2018-03-07T05:39:59.046Z,1.09
2018-03-07T05:42:26.698Z,1.22
2018-03-07T05:44:54.160Z,1.23
2018-03-07T05:47:21.612Z,1.34
2018-03-07T05:49:49.099Z,1.54
2018-03-07T05:52:17.440Z,1.65
2018-03-07T05:54:45.184Z,1.73
2018-03-07T05:57:12.716Z,2.04
2018-03-07T05:59:40.289Z,2.14
2018-03-07T06:02:07.767Z,2.24
2018-03-07T06:04:35.218Z,2.26
2018-03-07T06:07:02.706Z,2.38
2018-03-07T06:09:30.180Z,2.42
2018-03-07T06:11:57.658Z,2.53
2018-03-07T06:14:25.187Z,2.67
2018-03-07T06:16:52.759Z,2.93
2018-03-07T06:19:22.320Z,3.05
2018-03-07T06:21:50.054Z,3.22
2018-03-07T06:24:17.825Z,3.32
2018-03-07T06:26:45.447Z,3.48
2018-03-07T06:29:12.916Z,3.56
2018-03-07T06:31:40.387Z,3.55
2018-03-07T06:34:07.901Z,3.54
2018-03-07T06:36:35.380Z,3.48
2018-03-07T06:39:02.875Z,3.55
2018-03-07T06:41:30.351Z,3.54
2018-03-07T06:43:59.783Z,3.43
2018-03-07T06:46:26.654Z,3.36
2018-03-07T06:48:54.151Z,3.38
2018-03-07T06:51:21.627Z,3.35
2018-03-07T06:53:49.588Z,3.27
2018-03-07T06:56:17.931Z,3.19
2018-03-07T06:58:45.431Z,3.22
2018-03-07T07:01:12.891Z,3.28
2018-03-07T07:03:40.375Z,3.36
2018-03-07T07:06:07.876Z,3.42
2018-03-07T07:08:35.729Z,3.41
2018-03-07T07:11:03.243Z,3.39
2018-03-07T07:13:30.734Z,3.48
2018-03-07T07:15:58.267Z,3.57
2018-03-07T07:18:26.122Z,3.78
2018-03-07T07:20:53.628Z,3.83
2018-03-07T07:23:21.114Z,3.91
2018-03-07T07:25:48.805Z,3.98
2018-03-07T07:28:16.443Z,3.97
2018-03-07T07:30:43.957Z,4.01
2018-03-07T07:33:11.421Z,3.90
2018-03-07T07:35:38.926Z,3.87
2018-03-07T07:38:06.440Z,3.92
2018-03-07T07:40:34.117Z,3.95
2018-03-07T07:43:01.651Z,3.92
2018-03-07T07:45:29.128Z,3.90
2018-03-07T07:47:56.592Z,3.87
2018-03-07T07:50:24.078Z,3.86
2018-03-07T07:52:51.559Z,3.89
2018-03-07T07:55:19.024Z,3.95
2018-03-07T07:57:46.545Z,4.06
2018-03-07T08:00:14.026Z,4.23
2018-03-07T08:02:41.486Z,4.30
2018-03-07T08:05:08.947Z,4.39
2018-03-07T08:07:36.434Z,4.55
2018-03-07T08:10:03.916Z,4.73
2018-03-07T08:12:31.449Z,4.82
2018-03-07T08:14:58.950Z,5.04
2018-03-07T08:17:26.414Z,5.17
2018-03-07T08:19:53.905Z,5.29
2018-03-07T08:22:21.381Z,5.42
2018-03-07T08:24:48.834Z,5.55
2018-03-07T08:27:16.400Z,5.64
2018-03-07T08:29:43.914Z,5.77
2018-03-07T08:32:11.399Z,5.94
2018-03-07T08:34:38.881Z,6.05
2018-03-07T08:37:06.335Z,6.25
2018-03-07T08:39:33.854Z,6.33
2018-03-07T08:42:01.326Z,6.50
2018-03-07T08:44:29.015Z,6.60
2018-03-07T08:46:56.569Z,6.65
2018-03-07T08:49:24.048Z,6.72
2018-03-07T08:51:51.507Z,6.86
2018-03-07T08:54:18.964Z,7.10
2018-03-07T08:56:46.450Z,7.19
2018-03-07T08:59:14.385Z,7.41
2018-03-07T09:01:41.854Z,7.61
2018-03-07T09:04:09.300Z,7.74
2018-03-07T09:06:36.787Z,7.79
2018-03-07T09:09:04.293Z,7.93
2018-03-07T09:11:31.763Z,8.10
2018-03-07T09:13:59.359Z,8.22
2018-03-07T09:16:26.829Z,8.35
2018-03-07T09:18:54.301Z,8.60
2018-03-07T09:21:21.799Z,8.71
2018-03-07T09:23:49.284Z,8.98
2018-03-07T09:26:16.955Z,9.16
2018-03-07T09:28:44.444Z,9.30
2018-03-07T09:31:11.899Z,9.32
2018-03-07T09:33:39.374Z,9.19
2018-03-07T09:36:07.205Z,8.93
2018-03-07T09:38:34.684Z,8.83
2018-03-07T09:41:02.155Z,8.82
2018-03-07T09:43:29.610Z,8.84
2018-03-07T09:45:57.079Z,8.84
2018-03-07T09:48:24.783Z,8.90
2018-03-07T09:50:52.287Z,8.93
2018-03-07T09:53:19.778Z,8.95
2018-03-07T09:55:47.238Z,8.95
2018-03-07T09:58:15.024Z,9.10
2018-03-07T10:00:42.775Z,9.23
2018-03-07T10:03:10.243Z,9.52
2018-03-07T10:05:37.735Z,9.80
2018-03-07T10:08:05.212Z,10.11
2018-03-07T10:10:32.669Z,10.16
2018-03-07T10:13:00.148Z,10.34
2018-03-07T10:15:27.638Z,10.57
2018-03-07T10:17:55.126Z,10.81
2018-03-07T10:20:22.594Z,10.87
2018-03-07T10:22:50.151Z,11.18
2018-03-07T10:25:17.599Z,11.51
2018-03-07T10:27:45.080Z,11.82
2018-03-07T10:30:12.573Z,12.18
2018-03-07T10:32:40.113Z,12.39
2018-03-07T10:35:07.591Z,12.59
2018-03-07T10:37:35.073Z,12.87
2018-03-07T10:40:02.557Z,13.05
2018-03-07T10:42:30.024Z,13.10
2018-03-07T10:44:57.547Z,13.18
2018-03-07T10:47:25.021Z,13.33
2018-03-07T10:49:52.533Z,13.45
2018-03-07T10:52:20.040Z,13.67
2018-03-07T10:54:47.544Z,13.82
2018-03-07T10:57:15.203Z,13.82
2018-03-07T10:59:42.722Z,14.01
2018-03-07T11:02:10.222Z,14.32
2018-03-07T11:04:37.809Z,14.39
2018-03-07T11:07:05.274Z,14.42
2018-03-07T11:09:34.906Z,14.45
2018-03-07T11:12:02.515Z,14.74
2018-03-07T11:14:30.895Z,15.08
2018-03-07T11:16:58.387Z,15.11
2018-03-07T11:19:25.880Z,15.06
2018-03-07T11:21:53.411Z,15.23
2018-03-07T11:24:20.884Z,15.37
2018-03-07T11:26:48.359Z,15.17
2018-03-07T11:29:15.848Z,15.04
2018-03-07T11:31:43.331Z,14.84
2018-03-07T11:34:10.795Z,14.71
2018-03-07T11:36:38.257Z,14.20
2018-03-07T11:39:05.769Z,13.97
2018-03-07T11:41:33.301Z,13.53
2018-03-07T11:44:00.775Z,13.22
2018-03-07T11:46:28.454Z,12.90
2018-03-07T11:48:55.945Z,12.72
2018-03-07T11:51:23.426Z,13.05
2018-03-07T11:53:50.894Z,13.26
2018-03-07T11:56:18.352Z,13.53
2018-03-07T11:58:45.815Z,13.61
2018-03-07T12:01:13.287Z,13.52
2018-03-07T12:03:40.780Z,13.69
2018-03-07T12:06:08.279Z,13.69
2018-03-07T12:08:35.746Z,14.12
2018-03-07T12:11:03.201Z,14.35
2018-03-07T12:13:30.702Z,14.11
2018-03-07T12:15:58.184Z,13.92
2018-03-07T12:18:26.112Z,14.05
2018-03-07T12:20:53.625Z,13.97
2018-03-07T12:23:21.917Z,13.82
2018-03-07T12:25:50.374Z,13.97
2018-03-07T12:28:18.301Z,13.78
2018-03-07T12:30:45.917Z,13.95
2018-03-07T12:33:13.407Z,13.94
2018-03-07T12:35:40.916Z,14.27
2018-03-07T12:38:08.442Z,14.26
2018-03-07T12:40:35.943Z,14.29
2018-03-07T12:43:05.386Z,14.40
2018-03-07T12:45:33.034Z,13.94
2018-03-07T12:48:00.643Z,13.19
2018-03-07T12:50:28.148Z,12.86
2018-03-07T12:52:55.719Z,12.93
2018-03-07T12:55:23.324Z,13.01
2018-03-07T12:57:50.825Z,13.04
2018-03-07T13:00:18.576Z,13.16
2018-03-07T13:02:46.065Z,13.32
2018-03-07T13:05:13.814Z,13.49
2018-03-07T13:07:41.456Z,13.79
2018-03-07T13:10:08.954Z,13.85
2018-03-07T13:12:37.223Z,13.72
2018-03-07T13:15:04.740Z,13.58
2018-03-07T13:17:32.378Z,13.34
2018-03-07T13:19:59.918Z,13.21
2018-03-07T13:22:27.907Z,13.32
2018-03-07T13:27:27.294Z,13.26
2018-03-07T13:29:54.846Z,13.11
2018-03-07T13:32:22.453Z,13.05
2018-03-07T13:34:50.041Z,13.05
2018-03-07T13:37:17.628Z,13.20
2018-03-07T13:39:45.353Z,13.25
2018-03-07T13:42:13.464Z,13.25
2018-03-07T13:44:41.001Z,13.39
2018-03-07T13:47:08.488Z,13.29
2018-03-07T13:49:36.081Z,13.33
2018-03-07T13:52:03.646Z,13.54
2018-03-07T13:54:31.182Z,13.57
2018-03-07T13:56:58.773Z,13.71
2018-03-07T13:59:26.250Z,14.02
2018-03-07T14:01:53.808Z,14.35
2018-03-07T14:04:21.469Z,14.43
2018-03-07T14:06:49.045Z,14.14
2018-03-07T14:09:16.615Z,13.59
2018-03-07T14:11:44.220Z,13.51
2018-03-07T14:14:11.826Z,13.21
2018-03-07T14:16:42.377Z,12.83
2018-03-07T14:19:09.883Z,12.85
2018-03-07T14:21:37.407Z,12.82
2018-03-07T14:24:04.930Z,13.07
2018-03-07T14:26:33.640Z,13.22
2018-03-07T14:29:01.150Z,13.97
2018-03-07T14:31:28.665Z,13.94
2018-03-07T14:33:56.164Z,13.99
2018-03-07T14:36:23.912Z,14.13
2018-03-07T14:38:51.403Z,14.98
2018-03-07T14:41:19.019Z,16.21
2018-03-07T14:43:46.599Z,16.41
2018-03-07T14:46:14.779Z,16.68
2018-03-07T14:48:42.421Z,16.03
2018-03-07T14:51:10.088Z,14.93
2018-03-07T14:53:37.560Z,14.22
2018-03-07T14:56:05.163Z,13.98
2018-03-07T14:58:33.043Z,13.58
2018-03-07T15:01:00.792Z,13.81
2018-03-07T15:03:28.309Z,14.69
2018-03-07T15:05:56.378Z,14.86
2018-03-07T15:08:23.902Z,14.89
2018-03-07T15:10:51.911Z,15.04
2018-03-07T15:15:51.818Z,15.91
2018-03-07T15:18:19.316Z,15.88
2018-03-07T15:20:47.322Z,15.32
2018-03-07T15:28:59.428Z,15.36
2018-03-07T15:31:27.088Z,14.66
2018-03-07T15:33:54.596Z,14.46
2018-03-07T15:36:22.124Z,14.55
2018-03-07T15:38:49.759Z,15.20
2018-03-07T15:41:17.335Z,15.77
2018-03-07T15:43:51.079Z,16.18
2018-03-07T15:46:19.179Z,16.44
2018-03-07T15:48:50.994Z,15.61
2018-03-07T15:52:19.635Z,15.41
2018-03-07T15:54:48.578Z,14.70
2018-03-07T15:57:17.393Z,13.75
2018-03-07T15:59:46.069Z,13.03
2018-03-07T16:02:13.688Z,12.45
2018-03-07T16:04:42.068Z,12.02
2018-03-07T16:07:09.817Z,11.71
2018-03-07T16:09:37.357Z,11.44
2018-03-07T16:12:04.863Z,11.17
2018-03-07T16:14:33.078Z,10.98
2018-03-07T16:17:00.623Z,10.99
2018-03-07T16:19:28.050Z,10.77
2018-03-07T16:21:55.517Z,10.57
2018-03-07T16:24:23.022Z,10.36
2018-03-07T16:26:50.550Z,10.23
2018-03-07T16:29:18.040Z,10.04
2018-03-07T16:31:45.629Z,9.88
2018-03-07T16:34:13.227Z,9.76
2018-03-07T16:36:40.710Z,9.72
2018-03-07T16:39:08.177Z,9.58
2018-03-07T16:41:42.985Z,9.53
2018-03-07T16:44:10.440Z,9.34
2018-03-07T16:46:37.944Z,9.35
2018-03-07T16:49:05.702Z,9.26
2018-03-07T16:51:33.154Z,9.07
2018-03-07T16:54:00.662Z,8.85
2018-03-07T16:56:28.169Z,8.69
2018-03-07T16:58:55.654Z,8.63
2018-03-07T17:01:23.128Z,8.54
2018-03-07T17:03:50.605Z,8.44
2018-03-07T17:06:19.399Z,8.35
2018-03-07T17:08:46.884Z,8.26
2018-03-07T17:11:14.385Z,8.18
2018-03-07T17:13:41.917Z,8.09
2018-03-07T17:16:12.337Z,8.01
2018-03-07T17:18:39.824Z,7.89
2018-03-07T17:21:07.360Z,7.80
2018-03-07T17:23:34.842Z,7.71
2018-03-07T17:26:02.296Z,7.61
2018-03-07T17:28:30.620Z,7.56
2018-03-07T17:30:58.190Z,7.52
2018-03-07T17:33:26.240Z,7.55
2018-03-07T17:35:53.722Z,7.52
2018-03-07T17:38:21.217Z,7.54
2018-03-07T17:40:48.695Z,7.45
2018-03-07T17:43:16.245Z,7.36
2018-03-07T17:45:43.723Z,7.23
2018-03-07T17:48:11.267Z,7.08
2018-03-07T17:50:38.749Z,6.92
2018-03-07T17:53:06.782Z,6.79
2018-03-07T17:55:34.323Z,6.66
2018-03-07T17:58:01.879Z,6.60
2018-03-07T18:00:35.085Z,6.61
2018-03-07T18:03:02.563Z,6.66
2018-03-07T18:05:30.091Z,6.78
2018-03-07T18:07:57.571Z,6.89
2018-03-07T18:10:25.036Z,7.06
2018-03-07T18:12:52.505Z,7.15
2018-03-07T18:15:20.046Z,7.29
2018-03-07T18:17:47.532Z,7.40
2018-03-07T18:20:15.170Z,7.47
2018-03-07T18:22:42.716Z,7.60
2018-03-07T18:25:10.241Z,7.64
2018-03-07T18:27:37.746Z,7.62
2018-03-07T18:30:05.322Z,7.57
2018-03-07T18:32:33.544Z,7.52
2018-03-07T18:35:01.041Z,7.36
2018-03-07T18:37:28.648Z,7.20
2018-03-07T18:39:56.252Z,7.08
2018-03-07T18:42:29.374Z,7.01
2018-03-07T18:44:56.903Z,6.91
2018-03-07T18:47:24.427Z,6.89
2018-03-07T18:49:51.953Z,6.82
2018-03-07T18:52:19.504Z,6.78
2018-03-07T18:54:47.353Z,6.77
2018-03-07T18:57:15.021Z,6.78
2018-03-07T18:59:42.782Z,6.83
2018-03-07T19:02:10.359Z,6.88
2018-03-07T19:04:38.038Z,6.93
2018-03-07T19:07:05.567Z,7.02
2018-03-07T19:09:33.081Z,7.10
2018-03-07T19:12:00.569Z,7.27
2018-03-07T19:14:28.845Z,7.35
2018-03-07T19:16:56.437Z,7.40
2018-03-07T19:19:24.012Z,7.42
2018-03-07T19:21:51.528Z,7.43
2018-03-07T19:24:20.921Z,7.40
2018-03-07T19:26:50.658Z,7.44
2018-03-07T19:29:18.332Z,7.39
2018-03-07T19:31:45.975Z,7.34
2018-03-07T19:34:15.381Z,7.28
2018-03-07T19:36:42.947Z,7.20
2018-03-07T19:39:10.493Z,7.19
2018-03-07T19:41:38.336Z,7.23
2018-03-07T19:44:05.804Z,7.35
2018-03-07T19:46:34.191Z,7.44
2018-03-07T19:49:01.958Z,7.47
2018-03-07T19:51:29.579Z,7.57
2018-03-07T19:53:57.152Z,7.58
2018-03-07T19:56:24.698Z,7.59
2018-03-07T19:58:52.313Z,7.54
2018-03-07T20:01:19.921Z,7.62
2018-03-07T20:03:47.477Z,7.46
2018-03-07T20:06:17.547Z,7.51
2018-03-07T20:08:45.180Z,7.44
2018-03-07T20:11:12.692Z,7.29
2018-03-07T20:13:40.220Z,7.17
2018-03-07T20:16:08.986Z,7.08
2018-03-07T20:18:36.534Z,7.05
2018-03-07T20:21:04.093Z,7.02
2018-03-07T20:23:31.653Z,7.02
2018-03-07T20:25:59.980Z,7.06
2018-03-07T20:28:27.593Z,7.09
2018-03-07T20:33:27.047Z,7.06
2018-03-07T20:35:54.578Z,7.05
2018-03-07T20:38:26.176Z,7.04
2018-03-07T20:40:53.753Z,7.07
2018-03-07T20:43:21.274Z,7.09
2018-03-07T20:45:49.072Z,7.10
2018-03-07T20:48:16.759Z,7.08
2018-03-07T20:50:44.300Z,7.07
2018-03-07T20:53:13.322Z,7.07
2018-03-07T20:55:41.823Z,7.04
2018-03-07T20:58:09.758Z,7.01
2018-03-07T21:00:37.547Z,6.99
2018-03-07T21:03:05.942Z,6.96
2018-03-07T21:05:33.801Z,6.99
2018-03-07T21:08:02.063Z,6.96
2018-03-07T21:10:29.858Z,6.92
2018-03-07T21:12:58.097Z,7.12
2018-03-07T21:15:25.930Z,7.04
2018-03-07T21:17:54.348Z,6.92
2018-03-07T21:20:21.860Z,7.01
2018-03-07T21:25:27.739Z,6.88
2018-03-07T21:27:56.220Z,7.11
2018-03-07T21:30:24.600Z,7.04
2018-03-07T21:32:52.202Z,7.04
2018-03-07T21:35:19.758Z,7.02
2018-03-07T21:37:47.224Z,6.94
2018-03-07T21:40:14.882Z,6.96
2018-03-07T21:42:42.388Z,7.10
2018-03-07T21:45:10.023Z,7.24
2018-03-07T21:47:37.578Z,7.28
2018-03-07T21:50:05.137Z,7.29
2018-03-07T21:52:34.342Z,7.34
2018-03-07T21:55:01.876Z,7.44
2018-03-07T21:57:29.559Z,7.47
2018-03-07T21:59:57.119Z,7.45
2018-03-07T22:02:24.582Z,7.49
2018-03-07T22:04:52.078Z,7.54
2018-03-07T22:07:19.581Z,7.54
2018-03-07T22:09:47.073Z,7.57
2018-03-07T22:12:14.541Z,7.33
2018-03-07T22:14:42.083Z,7.18
2018-03-07T22:17:09.604Z,7.20
2018-03-07T22:19:37.222Z,7.11
2018-03-07T22:22:05.511Z,7.11
2018-03-07T22:24:33.141Z,7.10
2018-03-07T22:27:00.611Z,6.96
2018-03-07T22:29:28.069Z,6.90
2018-03-07T22:31:55.604Z,6.93
2018-03-07T22:34:23.233Z,6.86
2018-03-07T22:36:50.733Z,6.83
2018-03-07T22:39:18.289Z,6.78
2018-03-07T22:41:45.785Z,6.80
2018-03-07T22:44:14.944Z,6.76
2018-03-07T22:46:42.504Z,6.72
2018-03-07T22:49:09.996Z,6.69
2018-03-07T22:51:37.488Z,6.73
2018-03-07T22:54:05.711Z,6.66
2018-03-07T22:56:34.749Z,6.61
2018-03-07T22:59:02.216Z,6.60
2018-03-07T23:01:30.708Z,6.46
2018-03-07T23:03:58.222Z,6.40
2018-03-07T23:06:27.314Z,6.34
2018-03-07T23:08:55.089Z,6.33
2018-03-07T23:11:22.564Z,6.22
2018-03-07T23:13:50.056Z,6.19
2018-03-07T23:16:17.668Z,6.12
2018-03-07T23:18:45.144Z,6.11
2018-03-07T23:21:12.650Z,6.13
2018-03-07T23:23:40.108Z,6.15
2018-03-07T23:26:07.587Z,6.07
2018-03-07T23:28:35.216Z,6.04
2018-03-07T23:31:02.724Z,5.98
2018-03-07T23:33:30.226Z,6.03
2018-03-07T23:38:30.393Z,5.90
2018-03-07T23:40:57.865Z,5.86
2018-03-07T23:43:25.431Z,5.80
2018-03-07T23:45:52.943Z,5.68
2018-03-07T23:48:20.422Z,5.64
2018-03-07T23:50:47.889Z,5.61
2018-03-07T23:53:15.417Z,5.56
2018-03-07T23:55:44.360Z,5.57
2018-03-07T23:58:11.795Z,5.59
